Barfield, Alabama
Current Conditions -  °F | °C
As of 11:53 PM on Thursday 27 Nov 2014 (Local Time) from KANB Reporting Station
Clear Clear  
Wind Chill: 26°   Ceiling: Unl
Heat Index: 31°   Visibility: 10mi
Dew Point: 25°   Wind: 5mph
Humidity: 79%   Direction: 290°WNW
Pressure: 30.42"   Gusts: NA
Location:  33.3533°N, 85.7343°W
Report Text: KANB 280553Z AUTO 29004KT 10SM CLR M01/M04 A3042 RMK AO2 SLP312 T10061039 10050 21011 400891011 50000
Loading
Personal Weather Stations






























Interactive Weather Map New forecast layout! Learn more

10-Day Weather Forecast

Advertisements
Track Severe Weather on mobile